createdAt,value
2022-11-20T00:02:12.515Z,8.00
2022-11-20T00:04:40.803Z,8.10
2022-11-20T00:07:09.166Z,8.20
2022-11-20T00:09:37.581Z,8.20
2022-11-20T00:12:07.815Z,8.30
2022-11-20T00:14:36.664Z,8.20
2022-11-20T00:17:05.556Z,8.20
2022-11-20T00:19:34.018Z,8.20
2022-11-20T00:22:02.394Z,8.20
2022-11-20T00:24:30.840Z,8.20
2022-11-20T00:27:02.023Z,8.20
2022-11-20T00:29:32.323Z,8.20
2022-11-20T00:32:01.049Z,8.30
2022-11-20T00:34:29.926Z,8.30
2022-11-20T00:36:58.672Z,8.30
2022-11-20T00:39:27.339Z,8.20
2022-11-20T00:41:55.895Z,8.20
2022-11-20T00:44:24.650Z,8.10
2022-11-20T00:46:54.860Z,8.00
2022-11-20T00:49:23.795Z,7.90
2022-11-20T00:51:52.610Z,7.80
2022-11-20T00:54:21.032Z,7.60
2022-11-20T00:56:49.465Z,7.50
2022-11-20T00:59:17.976Z,7.40
2022-11-20T01:01:46.429Z,7.30
2022-11-20T01:04:16.515Z,7.30
2022-11-20T01:06:45.044Z,7.30
2022-11-20T01:09:14.879Z,7.30
2022-11-20T01:11:44.108Z,7.40
2022-11-20T01:14:13.629Z,7.40
2022-11-20T01:16:43.130Z,7.40
2022-11-20T01:19:17.348Z,7.20
2022-11-20T01:21:48.594Z,7.10
2022-11-20T01:24:17.895Z,7.00
2022-11-20T01:26:47.488Z,6.90
2022-11-20T01:29:19.801Z,7.00
2022-11-20T01:31:48.804Z,7.00
2022-11-20T01:34:19.364Z,7.00
2022-11-20T01:36:49.707Z,7.00
2022-11-20T01:39:24.013Z,7.00
2022-11-20T01:42:11.166Z,7.00
2022-11-20T01:44:56.957Z,7.00
2022-11-20T01:47:34.250Z,7.00
2022-11-20T01:50:08.698Z,7.00
2022-11-20T01:52:40.324Z,7.00
2022-11-20T01:55:10.433Z,7.10
2022-11-20T01:57:40.209Z,7.10
2022-11-20T02:00:10.573Z,7.10
2022-11-20T02:02:43.177Z,7.10
2022-11-20T02:05:16.154Z,7.10
2022-11-20T02:07:46.266Z,7.10
2022-11-20T02:10:15.074Z,7.20
2022-11-20T02:13:00.835Z,7.40
2022-11-20T02:15:30.556Z,7.50
2022-11-20T02:17:59.250Z,7.70
2022-11-20T02:20:27.926Z,7.80
2022-11-20T02:23:00.098Z,7.90
2022-11-20T02:25:30.684Z,7.90
2022-11-20T02:27:59.109Z,7.80
2022-11-20T02:30:27.719Z,7.80
2022-11-20T02:32:56.005Z,7.70
2022-11-20T02:35:45.560Z,7.70
2022-11-20T02:38:14.074Z,7.60
2022-11-20T02:40:43.880Z,7.60
2022-11-20T02:43:13.438Z,7.50
2022-11-20T02:45:41.819Z,7.60
2022-11-20T02:48:10.260Z,7.70
2022-11-20T03:04:02.469Z,8.20
2022-11-20T03:06:31.184Z,8.00
2022-11-20T03:08:59.718Z,8.00
2022-11-20T03:11:28.682Z,8.00
2022-11-20T03:13:57.638Z,8.10
2022-11-20T03:16:26.120Z,8.10
2022-11-20T03:18:54.708Z,8.20
2022-11-20T03:21:24.573Z,8.20
2022-11-20T03:23:53.053Z,8.20
2022-11-20T03:26:22.692Z,8.20
2022-11-20T03:28:51.860Z,8.20
2022-11-20T03:31:21.609Z,8.20
2022-11-20T03:33:50.054Z,8.20
2022-11-20T03:36:19.094Z,8.40
2022-11-20T03:38:48.998Z,8.40
2022-11-20T03:41:20.481Z,8.30
2022-11-20T03:43:52.789Z,8.30
2022-11-20T03:46:21.143Z,8.20
2022-11-20T03:48:51.954Z,8.20
2022-11-20T03:51:21.840Z,8.30
2022-11-20T03:53:52.786Z,8.30
2022-11-20T03:56:22.282Z,8.40
2022-11-20T03:58:50.719Z,8.30
2022-11-20T04:01:20.353Z,8.30
2022-11-20T04:03:48.773Z,8.30
2022-11-20T04:06:17.799Z,8.20
2022-11-20T04:08:51.016Z,8.20
2022-11-20T04:11:24.264Z,8.10
2022-11-20T04:13:53.266Z,8.20
2022-11-20T04:16:21.722Z,8.30
2022-11-20T04:18:53.535Z,8.30
2022-11-20T04:21:21.931Z,8.30
2022-11-20T04:23:50.520Z,8.30
2022-11-20T04:26:18.840Z,8.20
2022-11-20T04:28:48.771Z,8.10
2022-11-20T04:31:18.042Z,8.20
2022-11-20T04:33:46.558Z,8.20
2022-11-20T04:36:16.358Z,8.20
2022-11-20T04:38:45.283Z,8.30
2022-11-20T04:41:16.814Z,8.40
2022-11-20T04:43:50.304Z,8.40
2022-11-20T04:46:19.343Z,8.40
2022-11-20T04:48:48.695Z,8.40
2022-11-20T04:51:18.090Z,8.40
2022-11-20T04:53:47.051Z,8.40
2022-11-20T04:56:16.109Z,8.40
2022-11-20T04:58:44.780Z,8.60
2022-11-20T05:01:15.364Z,8.60
2022-11-20T05:03:44.613Z,8.60
2022-11-20T05:06:14.426Z,8.60
2022-11-20T05:08:42.973Z,8.60
2022-11-20T05:11:11.953Z,8.60
2022-11-20T05:13:40.516Z,8.70
2022-11-20T05:16:09.902Z,8.80
2022-11-20T05:18:40.414Z,8.80
2022-11-20T05:21:10.274Z,8.70
2022-11-20T05:23:39.314Z,8.60
2022-11-20T05:26:10.490Z,8.60
2022-11-20T05:28:39.286Z,8.50
2022-11-20T05:31:09.854Z,8.50
2022-11-20T05:33:42.505Z,8.40
2022-11-20T05:36:11.590Z,8.50
2022-11-20T05:38:40.279Z,8.50
2022-11-20T05:41:09.158Z,8.50
2022-11-20T05:43:38.119Z,8.50
2022-11-20T05:46:07.824Z,8.40
2022-11-20T05:48:36.453Z,8.40
2022-11-20T05:51:07.386Z,8.50
2022-11-20T05:53:36.626Z,8.50
2022-11-20T05:56:06.977Z,8.50
2022-11-20T05:58:35.701Z,8.60
2022-11-20T06:01:08.110Z,8.50
2022-11-20T06:03:36.622Z,8.40
2022-11-20T06:06:07.830Z,8.40
2022-11-20T06:08:36.741Z,8.50
2022-11-20T06:11:07.465Z,8.50
2022-11-20T06:13:41.799Z,8.50
2022-11-20T06:16:12.138Z,8.50
2022-11-20T06:18:41.675Z,8.60
2022-11-20T06:21:13.427Z,8.60
2022-11-20T06:23:42.858Z,8.60
2022-11-20T06:26:13.461Z,8.70
2022-11-20T06:28:42.659Z,8.60
2022-11-20T06:31:14.504Z,8.60
2022-11-20T06:33:43.965Z,8.40
2022-11-20T06:36:16.237Z,8.30
2022-11-20T06:38:45.384Z,8.40
2022-11-20T06:41:16.135Z,8.40
2022-11-20T06:43:45.061Z,8.40
2022-11-20T06:46:15.034Z,8.40
2022-11-20T06:48:43.582Z,8.40
2022-11-20T06:51:14.056Z,8.40
2022-11-20T06:53:42.835Z,8.50
2022-11-20T06:56:11.659Z,8.50
2022-11-20T06:58:40.463Z,8.60
2022-11-20T07:01:12.029Z,8.60
2022-11-20T07:03:41.483Z,8.70
2022-11-20T07:06:11.022Z,8.60
2022-11-20T07:08:41.248Z,8.60
2022-11-20T07:11:10.370Z,8.60
2022-11-20T07:13:39.072Z,8.70
2022-11-20T07:16:10.596Z,8.70
2022-11-20T07:18:39.586Z,8.70
2022-11-20T07:21:11.654Z,8.70
2022-11-20T07:23:42.019Z,8.60
2022-11-20T07:26:12.825Z,8.50
2022-11-20T07:28:42.488Z,8.50
2022-11-20T07:31:14.666Z,8.60
2022-11-20T07:33:47.384Z,8.60
2022-11-20T07:36:16.034Z,8.40
2022-11-20T07:38:46.041Z,8.40
2022-11-20T07:41:15.033Z,8.40
2022-11-20T07:43:43.812Z,8.40
2022-11-20T07:46:12.608Z,8.40
2022-11-20T07:48:41.983Z,8.40
2022-11-20T07:51:10.876Z,8.40
2022-11-20T07:53:39.550Z,8.30
2022-11-20T07:56:10.637Z,8.40
2022-11-20T07:58:39.416Z,8.50
2022-11-20T08:01:09.528Z,8.40
2022-11-20T08:03:39.502Z,8.30
2022-11-20T08:06:09.810Z,8.20
2022-11-20T08:08:43.106Z,8.40
2022-11-20T08:11:34.047Z,8.40
2022-11-20T08:14:15.146Z,8.40
2022-11-20T08:16:46.167Z,8.40
2022-11-20T08:19:15.601Z,8.30
2022-11-20T08:21:44.755Z,8.30
2022-11-20T08:24:14.088Z,8.20
2022-11-20T08:26:44.481Z,8.20
2022-11-20T08:29:13.492Z,8.30
2022-11-20T08:31:42.201Z,8.30
2022-11-20T08:34:14.959Z,8.30
2022-11-20T08:36:46.449Z,8.50
2022-11-20T08:39:18.480Z,8.50
2022-11-20T08:41:48.567Z,8.40
2022-11-20T08:44:17.166Z,8.40
2022-11-20T08:46:46.933Z,8.50
2022-11-20T08:49:16.939Z,8.50
2022-11-20T08:51:46.098Z,8.50
2022-11-20T08:54:15.043Z,8.50
2022-11-20T08:56:43.850Z,8.40
2022-11-20T08:59:31.295Z,8.30
2022-11-20T09:02:02.648Z,8.30
2022-11-20T09:04:31.501Z,8.30
2022-11-20T09:07:02.585Z,8.40
2022-11-20T09:09:31.355Z,8.30
2022-11-20T09:12:00.027Z,8.40
2022-11-20T09:14:31.128Z,8.30
2022-11-20T09:17:00.067Z,8.40
2022-11-20T09:19:40.647Z,8.40
2022-11-20T09:22:09.988Z,8.50
2022-11-20T09:24:38.528Z,8.40
2022-11-20T09:27:07.585Z,8.40
2022-11-20T09:29:41.099Z,8.40
2022-11-20T09:32:10.357Z,8.40
2022-11-20T09:34:39.553Z,8.40
2022-11-20T09:37:08.382Z,8.40
2022-11-20T09:39:40.194Z,8.50
2022-11-20T09:42:31.530Z,8.50
2022-11-20T09:45:18.825Z,8.60
2022-11-20T09:48:13.315Z,8.70
2022-11-20T09:50:50.028Z,8.70
2022-11-20T09:53:32.927Z,8.70
2022-11-20T09:56:04.617Z,8.70
2022-11-20T09:58:37.660Z,8.80
2022-11-20T10:01:15.391Z,8.90
2022-11-20T10:03:54.268Z,8.90
2022-11-20T10:06:30.837Z,8.90
2022-11-20T10:09:16.318Z,8.80
2022-11-20T10:11:54.043Z,8.80
2022-11-20T10:14:32.728Z,8.80
2022-11-20T10:17:08.747Z,8.80
2022-11-20T10:19:49.990Z,8.80
2022-11-20T10:22:33.075Z,8.90
2022-11-20T10:25:08.473Z,9.00
2022-11-20T10:27:49.989Z,9.00
2022-11-20T10:30:23.076Z,8.90
2022-11-20T10:32:56.941Z,8.90
2022-11-20T10:35:35.516Z,9.00
2022-11-20T10:38:10.127Z,9.10
2022-11-20T10:40:45.125Z,9.20
2022-11-20T10:43:18.687Z,9.10
2022-11-20T10:45:55.473Z,9.10
2022-11-20T10:48:27.849Z,9.30
2022-11-20T10:51:17.970Z,9.50
2022-11-20T10:54:01.393Z,9.60
2022-11-20T10:56:37.798Z,9.70
2022-11-20T10:59:27.881Z,9.90
2022-11-20T11:01:56.896Z,10.00
2022-11-20T11:04:42.837Z,10.00
2022-11-20T11:07:15.532Z,9.90
2022-11-20T11:09:48.805Z,9.90
2022-11-20T11:12:17.579Z,9.90
2022-11-20T11:14:50.047Z,9.90
2022-11-20T11:17:28.964Z,10.00
2022-11-20T11:20:08.967Z,10.10
2022-11-20T11:22:49.117Z,10.20
2022-11-20T11:25:39.300Z,10.20
2022-11-20T11:28:22.672Z,10.30
2022-11-20T11:30:51.385Z,10.20
2022-11-20T11:33:23.175Z,10.10
2022-11-20T11:35:58.051Z,10.10
2022-11-20T11:38:33.069Z,10.10
2022-11-20T11:41:03.052Z,10.00
2022-11-20T11:43:53.077Z,10.00
2022-11-20T11:46:32.980Z,10.10
2022-11-20T11:49:03.421Z,10.10
2022-11-20T11:51:40.424Z,10.10
2022-11-20T11:54:18.731Z,10.20
2022-11-20T11:56:48.258Z,10.40
2022-11-20T11:59:27.670Z,10.40
2022-11-20T12:01:59.765Z,10.50
2022-11-20T12:04:42.758Z,10.40
2022-11-20T12:07:44.874Z,10.30
2022-11-20T12:10:15.138Z,10.40
2022-11-20T12:12:47.716Z,10.40
2022-11-20T12:15:30.961Z,10.50
2022-11-20T12:18:00.632Z,10.50
2022-11-20T12:20:33.988Z,10.50
2022-11-20T12:23:13.553Z,10.40
2022-11-20T12:25:46.388Z,10.40
2022-11-20T12:28:32.590Z,10.40
2022-11-20T12:31:19.822Z,10.40
2022-11-20T12:34:02.230Z,10.50
2022-11-20T12:36:39.757Z,10.70
2022-11-20T12:39:32.874Z,10.90
2022-11-20T12:42:59.825Z,10.80
2022-11-20T12:45:33.749Z,10.70
2022-11-20T12:48:13.289Z,10.60
2022-11-20T12:51:08.121Z,10.60
2022-11-20T12:53:38.956Z,10.50
2022-11-20T12:56:14.816Z,10.40
2022-11-20T12:58:46.730Z,10.40
2022-11-20T13:01:37.869Z,10.70
2022-11-20T13:04:10.736Z,11.10
2022-11-20T13:25:16.306Z,12.00
2022-11-20T13:28:06.951Z,12.00
2022-11-20T13:31:11.005Z,12.30
2022-11-20T13:34:06.300Z,12.20
2022-11-20T13:37:01.338Z,12.00
2022-11-20T13:39:41.293Z,11.40
2022-11-20T13:42:45.954Z,11.20
2022-11-20T13:46:33.817Z,11.00
2022-11-20T13:50:03.037Z,11.00
2022-11-20T14:01:40.383Z,11.00
2022-11-20T14:04:10.334Z,11.40
2022-11-20T14:06:43.776Z,11.60
2022-11-20T14:09:13.420Z,11.70
2022-11-20T14:11:48.739Z,11.50
2022-11-20T14:14:19.041Z,11.30
2022-11-20T14:16:49.328Z,11.20
2022-11-20T14:19:31.478Z,11.20
2022-11-20T14:22:11.485Z,11.20
2022-11-20T14:24:39.920Z,11.10
2022-11-20T14:27:12.914Z,11.00
2022-11-20T14:29:41.811Z,11.00
2022-11-20T14:32:12.920Z,11.00
2022-11-20T14:34:42.638Z,10.90
2022-11-20T14:37:16.733Z,10.80
2022-11-20T14:39:50.033Z,10.80
2022-11-20T14:42:19.024Z,10.80
2022-11-20T14:44:47.648Z,10.60
2022-11-20T14:47:19.770Z,10.60
2022-11-20T14:49:48.514Z,10.40
2022-11-20T14:52:18.246Z,10.50
2022-11-20T14:54:47.415Z,10.60
2022-11-20T14:57:24.085Z,10.60
2022-11-20T14:59:53.381Z,10.60
2022-11-20T15:02:24.852Z,10.50
2022-11-20T15:04:58.812Z,10.40
2022-11-20T15:07:27.984Z,10.40
2022-11-20T15:10:03.312Z,10.40
2022-11-20T15:12:32.382Z,10.40
2022-11-20T15:15:01.126Z,10.30
2022-11-20T15:17:31.883Z,10.30
2022-11-20T15:20:01.164Z,10.20
2022-11-20T15:22:29.841Z,10.10
2022-11-20T15:24:58.403Z,10.20
2022-11-20T15:27:28.218Z,10.10
2022-11-20T15:29:57.185Z,10.10
2022-11-20T15:32:25.724Z,10.10
2022-11-20T15:34:56.173Z,10.20
2022-11-20T15:37:29.759Z,10.20
2022-11-20T15:39:58.886Z,10.40
2022-11-20T15:42:27.306Z,10.50
2022-11-20T15:44:56.367Z,10.60
2022-11-20T15:47:26.698Z,10.60
2022-11-20T15:49:56.494Z,10.50
2022-11-20T15:52:24.807Z,10.50
2022-11-20T15:54:53.443Z,10.60
2022-11-20T15:57:21.724Z,10.50
2022-11-20T15:59:50.116Z,10.60
2022-11-20T16:02:19.557Z,10.60
2022-11-20T16:04:48.124Z,10.60
2022-11-20T16:07:17.919Z,10.50
2022-11-20T16:09:46.625Z,10.50
2022-11-20T16:12:35.334Z,10.40
2022-11-20T16:15:21.464Z,10.40
2022-11-20T16:17:49.914Z,10.40
2022-11-20T16:20:18.342Z,10.40
2022-11-20T16:22:48.080Z,10.40
2022-11-20T16:25:16.488Z,10.50
2022-11-20T16:27:44.977Z,10.50
2022-11-20T16:30:14.135Z,10.40
2022-11-20T16:32:42.545Z,10.40
2022-11-20T16:35:11.735Z,10.30
2022-11-20T16:37:40.562Z,10.20
2022-11-20T16:40:12.112Z,10.20
2022-11-20T16:42:41.029Z,10.20
2022-11-20T16:45:10.081Z,10.10
2022-11-20T16:47:38.664Z,10.10
2022-11-20T16:50:07.591Z,10.10
2022-11-20T16:52:36.103Z,10.10
2022-11-20T16:55:04.918Z,10.10
2022-11-20T16:57:35.169Z,10.10
2022-11-20T17:00:03.675Z,10.10
2022-11-20T17:02:32.173Z,10.10
2022-11-20T17:05:00.487Z,10.20
2022-11-20T17:07:28.902Z,10.20
2022-11-20T17:09:58.201Z,10.00
2022-11-20T17:12:26.911Z,10.10
2022-11-20T17:14:56.903Z,10.10
2022-11-20T17:17:25.586Z,10.20
2022-11-20T17:19:54.260Z,10.30
2022-11-20T17:22:22.791Z,10.30
2022-11-20T17:24:51.297Z,10.30
2022-11-20T17:27:19.735Z,10.40
2022-11-20T17:29:48.184Z,10.20
2022-11-20T17:32:18.045Z,10.10
2022-11-20T17:34:46.608Z,10.10
2022-11-20T17:37:15.037Z,10.00
2022-11-20T17:39:44.843Z,9.90
2022-11-20T17:42:29.881Z,9.90
2022-11-20T17:44:59.757Z,9.70
2022-11-20T17:47:29.717Z,9.50
2022-11-20T17:49:58.152Z,9.40
2022-11-20T17:52:26.741Z,9.30
2022-11-20T17:54:56.227Z,9.30
2022-11-20T17:57:42.314Z,9.30
2022-11-20T18:00:13.264Z,9.30
2022-11-20T18:02:43.109Z,9.30
2022-11-20T18:05:11.723Z,9.30
2022-11-20T18:07:41.948Z,9.20
2022-11-20T18:10:12.152Z,9.10
2022-11-20T18:12:40.530Z,9.10
2022-11-20T18:15:09.468Z,9.10
2022-11-20T18:17:37.972Z,9.10
2022-11-20T18:22:57.983Z,9.10
2022-11-20T18:25:26.709Z,9.00
2022-11-20T18:27:55.132Z,9.00
2022-11-20T18:30:24.130Z,8.90
2022-11-20T18:32:52.602Z,8.80
2022-11-20T18:35:22.507Z,8.60
2022-11-20T18:37:50.917Z,8.40
2022-11-20T18:40:19.539Z,8.30
2022-11-20T18:43:05.470Z,8.30
2022-11-20T18:45:34.085Z,8.20
2022-11-20T18:48:02.939Z,8.10
2022-11-20T18:50:32.872Z,8.00
2022-11-20T18:53:01.917Z,8.10
2022-11-20T18:55:30.485Z,8.20
2022-11-20T18:57:58.859Z,8.30
2022-11-20T19:00:27.335Z,8.30
2022-11-20T19:02:56.087Z,8.30
2022-11-20T19:05:28.314Z,8.20
2022-11-20T19:07:59.877Z,8.20
2022-11-20T19:10:28.580Z,8.10
2022-11-20T19:12:58.665Z,8.10
2022-11-20T19:15:27.076Z,8.20
2022-11-20T19:17:56.974Z,8.30
2022-11-20T19:20:27.852Z,8.20
2022-11-20T19:22:56.555Z,8.20
2022-11-20T19:25:26.906Z,8.20
2022-11-20T19:27:55.493Z,8.20
2022-11-20T19:30:24.635Z,8.30
2022-11-20T19:32:53.061Z,8.20
2022-11-20T19:35:21.748Z,8.20
2022-11-20T19:37:50.252Z,8.20
2022-11-20T19:40:18.978Z,8.30
2022-11-20T19:42:49.163Z,8.20
2022-11-20T19:45:17.887Z,8.10
2022-11-20T19:48:15.247Z,8.10
2022-11-20T19:50:35.535Z,8.10
2022-11-20T19:53:04.465Z,8.00
2022-11-20T19:55:33.054Z,8.10
2022-11-20T19:58:03.746Z,8.10
2022-11-20T20:00:33.134Z,8.00
2022-11-20T20:03:01.897Z,7.90
2022-11-20T20:05:30.797Z,7.90
2022-11-20T20:07:59.663Z,7.90
2022-11-20T20:10:28.776Z,7.90
2022-11-20T20:12:57.302Z,7.90
2022-11-20T20:15:27.871Z,7.90
2022-11-20T20:17:56.719Z,7.90
2022-11-20T20:20:26.191Z,7.80
2022-11-20T20:22:55.674Z,7.70
2022-11-20T20:25:25.444Z,7.80
2022-11-20T20:27:54.610Z,7.80
2022-11-20T20:30:23.488Z,7.80
2022-11-20T20:32:56.419Z,7.80
2022-11-20T20:35:25.867Z,7.80
2022-11-20T20:37:54.735Z,7.80
2022-11-20T20:40:23.074Z,7.70
2022-11-20T20:42:52.952Z,7.80
2022-11-20T20:45:22.023Z,7.90
2022-11-20T20:47:50.654Z,7.80
2022-11-20T20:50:20.892Z,7.80
2022-11-20T20:52:49.724Z,7.70
2022-11-20T20:55:18.328Z,7.60
2022-11-20T20:57:46.822Z,7.70
2022-11-20T21:00:15.797Z,7.60
2022-11-20T21:02:44.224Z,7.60
2022-11-20T21:05:12.769Z,7.60
2022-11-20T21:07:56.502Z,7.60
2022-11-20T21:10:25.095Z,7.70
2022-11-20T21:12:53.526Z,7.70
2022-11-20T21:15:21.916Z,7.80
2022-11-20T21:17:50.350Z,7.80
2022-11-20T21:20:32.722Z,7.90
2022-11-20T21:23:02.606Z,7.80
2022-11-20T21:25:31.300Z,7.80
2022-11-20T21:27:59.723Z,7.80
2022-11-20T21:30:28.147Z,7.80
2022-11-20T21:32:59.791Z,7.80
2022-11-20T21:35:28.287Z,7.80
2022-11-20T21:37:56.881Z,7.90
2022-11-20T21:40:27.070Z,7.90
2022-11-20T21:42:55.597Z,7.90
2022-11-20T21:45:24.049Z,7.80
2022-11-20T21:47:53.347Z,7.80
2022-11-20T21:50:22.310Z,7.80
2022-11-20T21:52:50.883Z,7.80
2022-11-20T21:55:19.370Z,7.70
2022-11-20T21:57:49.330Z,7.70
2022-11-20T22:00:18.186Z,7.70
2022-11-20T22:02:46.610Z,7.70
2022-11-20T22:05:15.097Z,7.70
2022-11-20T22:07:44.410Z,7.80
2022-11-20T22:10:18.159Z,7.70
2022-11-20T22:12:46.938Z,7.60
2022-11-20T22:15:23.858Z,7.60
2022-11-20T22:18:13.980Z,7.60
2022-11-20T22:20:42.844Z,7.60
2022-11-20T22:23:11.431Z,7.70
2022-11-20T22:25:39.860Z,7.60
2022-11-20T22:28:08.278Z,7.70
2022-11-20T22:30:38.350Z,7.60
2022-11-20T22:33:13.101Z,7.60
2022-11-20T22:35:42.145Z,7.70
2022-11-20T22:38:10.524Z,7.70
2022-11-20T22:40:39.259Z,7.70
2022-11-20T22:48:46.302Z,7.70
2022-11-20T22:51:20.129Z,7.70
2022-11-20T22:53:49.060Z,7.50
2022-11-20T22:56:18.312Z,7.50
2022-11-20T22:58:47.383Z,7.50
2022-11-20T23:01:16.600Z,7.50
2022-11-20T23:03:46.209Z,7.40
2022-11-20T23:06:15.243Z,7.40
2022-11-20T23:08:45.262Z,7.40
2022-11-20T23:11:14.263Z,7.40
2022-11-20T23:13:43.185Z,7.50
2022-11-20T23:16:12.649Z,7.50
2022-11-20T23:18:41.239Z,7.50
2022-11-20T23:21:10.786Z,7.50
2022-11-20T23:23:39.334Z,7.50
2022-11-20T23:26:09.659Z,7.50
2022-11-20T23:28:38.333Z,7.50
2022-11-20T23:31:07.095Z,7.50
2022-11-20T23:33:36.961Z,7.50
2022-11-20T23:36:05.545Z,7.50
2022-11-20T23:38:33.900Z,7.60
2022-11-20T23:41:02.496Z,7.50
2022-11-20T23:43:32.480Z,7.50
2022-11-20T23:46:01.655Z,7.50
2022-11-20T23:48:31.505Z,7.60
2022-11-20T23:51:00.065Z,7.60
2022-11-20T23:53:29.144Z,7.60
2022-11-20T23:55:58.208Z,7.70
2022-11-20T23:58:28.004Z,7.70
